createdAt,value
2017-07-20T00:00:57.009Z,0
2017-07-20T00:01:57.018Z,0
2017-07-20T00:02:57.041Z,0
2017-07-20T00:03:57.023Z,0
2017-07-20T00:04:56.993Z,0
2017-07-20T00:05:57.062Z,0
2017-07-20T00:06:56.978Z,0
2017-07-20T00:07:57.049Z,0
2017-07-20T00:08:56.963Z,0
2017-07-20T00:09:57.051Z,0
2017-07-20T00:10:57.009Z,0
2017-07-20T00:11:57.015Z,0
2017-07-20T00:12:57.031Z,0
2017-07-20T00:13:56.963Z,0
2017-07-20T00:14:57.056Z,0
2017-07-20T00:15:57.023Z,0
2017-07-20T00:16:56.960Z,0
2017-07-20T00:17:57.028Z,0
2017-07-20T00:18:57.056Z,0
2017-07-20T00:19:57.062Z,0
2017-07-20T00:20:56.998Z,0
2017-07-20T00:21:57.058Z,0
2017-07-20T00:22:56.994Z,0
2017-07-20T00:23:57.061Z,0
2017-07-20T00:24:57.053Z,0
2017-07-20T00:25:57.059Z,0
2017-07-20T00:26:57.057Z,0
2017-07-20T00:27:57.063Z,0
2017-07-20T00:28:56.971Z,0
2017-07-20T00:29:56.995Z,0
2017-07-20T00:30:57.033Z,0
2017-07-20T00:31:56.976Z,0
2017-07-20T00:32:56.996Z,0
2017-07-20T00:33:57.032Z,0
2017-07-20T00:34:57.087Z,0
2017-07-20T00:35:57.003Z,0
2017-07-20T00:36:56.979Z,0
2017-07-20T00:37:57.063Z,0
2017-07-20T00:38:57.026Z,0
2017-07-20T00:39:57.075Z,0
2017-07-20T00:40:56.972Z,0
2017-07-20T00:41:56.974Z,0
2017-07-20T00:42:56.995Z,0
2017-07-20T00:43:56.978Z,0
2017-07-20T00:44:56.974Z,0
2017-07-20T00:45:57.015Z,0
2017-07-20T00:46:56.979Z,0
2017-07-20T00:47:57.073Z,0
2017-07-20T00:48:57.049Z,0
2017-07-20T00:49:57.004Z,0
2017-07-20T00:50:57.041Z,0
2017-07-20T00:51:57.020Z,0
2017-07-20T00:52:57.013Z,0
2017-07-20T00:53:57.019Z,0
2017-07-20T00:54:56.982Z,0
2017-07-20T00:55:57.086Z,0
2017-07-20T00:56:57.088Z,0
2017-07-20T00:57:57.008Z,0
2017-07-20T00:58:57.008Z,0
2017-07-20T00:59:56.959Z,0
2017-07-20T01:00:56.957Z,0
2017-07-20T01:01:57.011Z,0
2017-07-20T01:02:57.058Z,0
2017-07-20T01:03:57.057Z,0
2017-07-20T01:04:56.988Z,0
2017-07-20T01:05:56.967Z,0
2017-07-20T01:06:57.001Z,0
2017-07-20T01:07:56.989Z,0
2017-07-20T01:08:57.072Z,0
2017-07-20T01:09:57.089Z,0
2017-07-20T01:10:57.078Z,0
2017-07-20T01:11:57.021Z,0
2017-07-20T01:12:57.084Z,0
2017-07-20T01:13:56.993Z,0
2017-07-20T01:14:57.027Z,0
2017-07-20T01:15:57.063Z,0
2017-07-20T01:16:57.061Z,0
2017-07-20T01:17:56.996Z,0
2017-07-20T01:18:57.001Z,0
2017-07-20T01:19:57.086Z,0
2017-07-20T01:20:56.999Z,0
2017-07-20T01:21:57.066Z,0
2017-07-20T01:22:57.038Z,0
2017-07-20T01:23:57.094Z,0
2017-07-20T01:24:57.081Z,0
2017-07-20T01:25:57.093Z,0
2017-07-20T01:26:57.064Z,0
2017-07-20T01:27:57.027Z,0
2017-07-20T01:28:56.977Z,0
2017-07-20T01:29:56.956Z,0
2017-07-20T01:30:57.015Z,0
2017-07-20T01:31:57.020Z,0
2017-07-20T01:32:57.026Z,0
2017-07-20T01:33:57.069Z,0
2017-07-20T01:34:57.036Z,0
2017-07-20T01:35:56.987Z,0
2017-07-20T01:36:57.010Z,0
2017-07-20T01:37:56.982Z,0
2017-07-20T01:38:57.024Z,0
2017-07-20T01:39:57.021Z,0
2017-07-20T01:40:57.029Z,0
2017-07-20T01:41:56.981Z,0
2017-07-20T01:42:57.033Z,0
2017-07-20T01:43:57.033Z,0
2017-07-20T01:44:57.017Z,0
2017-07-20T01:45:57.011Z,0
2017-07-20T01:46:57.029Z,0
2017-07-20T01:47:57.006Z,0
2017-07-20T01:48:57.037Z,0
2017-07-20T01:49:57.009Z,0
2017-07-20T01:50:57.028Z,0
2017-07-20T01:51:57.026Z,0
2017-07-20T01:52:57.037Z,0
2017-07-20T01:53:56.968Z,0
2017-07-20T01:54:57.007Z,0
2017-07-20T01:55:57.015Z,0
2017-07-20T01:56:57.039Z,0
2017-07-20T01:57:57.110Z,0
2017-07-20T01:58:57.027Z,0
2017-07-20T01:59:57.108Z,0
2017-07-20T02:00:57.115Z,0
2017-07-20T02:01:57.113Z,0
2017-07-20T02:02:57.026Z,0
2017-07-20T02:03:57.088Z,0
2017-07-20T02:04:57.044Z,0
2017-07-20T02:05:57.112Z,0
2017-07-20T02:06:57.121Z,0
2017-07-20T02:07:57.058Z,0
2017-07-20T02:08:57.028Z,0
2017-07-20T02:09:57.093Z,0
2017-07-20T02:10:57.124Z,0
2017-07-20T02:11:57.122Z,0
2017-07-20T02:12:57.061Z,0
2017-07-20T02:13:57.062Z,0
2017-07-20T02:14:57.027Z,0
2017-07-20T02:15:57.029Z,0
2017-07-20T02:16:57.033Z,0
2017-07-20T02:17:57.132Z,0
2017-07-20T02:18:57.040Z,0
2017-07-20T02:19:57.103Z,0
2017-07-20T02:20:57.054Z,0
2017-07-20T02:21:57.130Z,0
2017-07-20T02:22:57.032Z,0
2017-07-20T02:23:57.071Z,0
2017-07-20T02:24:57.092Z,0
2017-07-20T02:25:57.066Z,0
2017-07-20T02:26:57.033Z,0
2017-07-20T02:27:57.039Z,0
2017-07-20T02:28:57.055Z,0
2017-07-20T02:29:57.053Z,0
2017-07-20T02:30:57.042Z,0
2017-07-20T02:31:57.010Z,0
2017-07-20T02:32:57.049Z,0
2017-07-20T02:33:57.036Z,0
2017-07-20T02:34:57.063Z,0
2017-07-20T02:35:57.063Z,0
2017-07-20T02:36:57.069Z,0
2017-07-20T02:37:57.112Z,0
2017-07-20T02:38:57.049Z,0
2017-07-20T02:39:57.170Z,0
2017-07-20T02:40:57.043Z,4
2017-07-20T02:41:57.074Z,4
2017-07-20T02:42:57.101Z,4
2017-07-20T02:43:57.137Z,4
2017-07-20T02:44:57.085Z,4
2017-07-20T02:45:57.102Z,4
2017-07-20T02:46:57.047Z,4
2017-07-20T02:47:57.071Z,4
2017-07-20T02:48:57.141Z,4
2017-07-20T02:49:57.134Z,4
2017-07-20T02:50:57.149Z,8
2017-07-20T02:51:57.116Z,8
2017-07-20T02:52:57.081Z,8
2017-07-20T02:53:57.145Z,8
2017-07-20T02:54:57.122Z,12
2017-07-20T02:55:57.074Z,12
2017-07-20T02:56:57.084Z,16
2017-07-20T02:57:57.072Z,16
2017-07-20T02:58:57.026Z,20
2017-07-20T02:59:57.117Z,20
2017-07-20T03:00:57.027Z,24
2017-07-20T03:01:57.077Z,32
2017-07-20T03:02:57.061Z,32
2017-07-20T03:03:57.035Z,40
2017-07-20T03:04:57.076Z,48
2017-07-20T03:05:57.039Z,52
2017-07-20T03:06:57.061Z,60
2017-07-20T03:07:57.110Z,68
2017-07-20T03:08:57.069Z,80
2017-07-20T03:09:57.096Z,88
2017-07-20T03:10:57.160Z,100
2017-07-20T03:11:57.100Z,112
2017-07-20T03:12:57.160Z,124
2017-07-20T03:13:57.126Z,140
2017-07-20T03:14:57.068Z,156
2017-07-20T03:15:57.065Z,168
2017-07-20T03:16:57.130Z,188
2017-07-20T03:17:57.140Z,208
2017-07-20T03:18:57.059Z,232
2017-07-20T03:19:57.088Z,252
2017-07-20T03:20:57.061Z,284
2017-07-20T03:21:57.089Z,324
2017-07-20T03:22:57.125Z,356
2017-07-20T03:23:57.065Z,384
2017-07-20T03:24:57.091Z,404
2017-07-20T03:25:57.124Z,432
2017-07-20T03:26:57.122Z,464
2017-07-20T03:27:57.102Z,500
2017-07-20T03:28:57.098Z,540
2017-07-20T03:29:57.098Z,592
2017-07-20T03:30:57.163Z,656
2017-07-20T03:31:57.126Z,708
2017-07-20T03:32:57.132Z,768
2017-07-20T03:33:57.146Z,836
2017-07-20T03:34:57.172Z,896
2017-07-20T03:35:57.086Z,952
2017-07-20T03:36:57.145Z,1016
2017-07-20T03:37:57.099Z,1068
2017-07-20T03:38:57.104Z,1136
2017-07-20T03:39:57.102Z,1204
2017-07-20T03:40:57.104Z,1268
2017-07-20T03:41:57.135Z,1312
2017-07-20T03:42:57.072Z,1340
2017-07-20T03:43:57.133Z,1348
2017-07-20T03:44:57.076Z,1380
2017-07-20T03:45:57.076Z,1408
2017-07-20T03:46:57.133Z,1456
2017-07-20T03:47:57.107Z,1488
2017-07-20T03:48:57.131Z,1488
2017-07-20T03:49:57.100Z,1500
2017-07-20T03:50:57.101Z,1516
2017-07-20T03:51:57.064Z,1536
2017-07-20T03:52:57.063Z,1556
2017-07-20T03:53:57.057Z,1592
2017-07-20T03:54:57.110Z,1676
2017-07-20T03:55:57.149Z,1760
2017-07-20T03:56:57.079Z,1836
2017-07-20T03:57:57.118Z,1868
2017-07-20T03:58:57.110Z,1908
2017-07-20T03:59:57.088Z,1952
2017-07-20T04:00:57.176Z,2008
2017-07-20T04:01:57.115Z,2036
2017-07-20T04:02:57.108Z,2056
2017-07-20T04:03:57.126Z,2088
2017-07-20T04:04:57.134Z,2144
2017-07-20T04:05:57.155Z,2244
2017-07-20T04:06:57.092Z,2360
2017-07-20T04:07:57.125Z,2420
2017-07-20T04:08:57.176Z,2416
2017-07-20T04:09:57.094Z,2476
2017-07-20T04:10:57.097Z,2640
2017-07-20T04:11:57.165Z,2860
2017-07-20T04:12:57.149Z,3064
2017-07-20T04:13:57.096Z,3256
2017-07-20T04:14:57.093Z,3408
2017-07-20T04:15:57.094Z,3588
2017-07-20T04:16:57.127Z,3744
2017-07-20T04:17:57.163Z,3932
2017-07-20T04:18:57.193Z,4164
2017-07-20T04:19:57.193Z,4404
2017-07-20T04:20:57.096Z,4624
2017-07-20T04:21:57.102Z,4828
2017-07-20T04:22:57.094Z,4940
2017-07-20T04:23:57.133Z,5008
2017-07-20T04:24:57.163Z,5112
2017-07-20T04:25:57.159Z,5328
2017-07-20T04:26:57.164Z,5648
2017-07-20T04:27:57.165Z,5788
2017-07-20T04:28:57.107Z,5956
2017-07-20T04:29:57.138Z,6292
2017-07-20T04:30:57.126Z,6516
2017-07-20T04:31:57.143Z,6572
2017-07-20T04:32:57.112Z,6492
2017-07-20T04:33:57.109Z,6360
2017-07-20T04:34:57.141Z,6340
2017-07-20T04:35:57.175Z,6564
2017-07-20T04:36:57.143Z,6972
2017-07-20T04:37:57.178Z,7008
2017-07-20T04:38:57.106Z,6628
2017-07-20T04:39:57.086Z,6272
2017-07-20T04:40:57.180Z,6076
2017-07-20T04:41:57.132Z,5848
2017-07-20T04:42:57.088Z,5828
2017-07-20T04:43:57.081Z,5724
2017-07-20T04:44:57.111Z,5616
2017-07-20T04:45:57.125Z,5568
2017-07-20T04:46:57.113Z,5580
2017-07-20T04:47:57.136Z,5704
2017-07-20T04:48:57.171Z,5896
2017-07-20T04:49:57.114Z,6136
2017-07-20T04:50:57.112Z,6480
2017-07-20T04:51:57.141Z,6932
2017-07-20T04:52:57.135Z,7496
2017-07-20T04:53:57.153Z,8228
2017-07-20T04:54:57.189Z,9120
2017-07-20T04:55:57.162Z,10116
2017-07-20T04:56:57.145Z,10896
2017-07-20T04:57:57.116Z,11336
2017-07-20T04:58:57.109Z,11576
2017-07-20T04:59:57.140Z,11876
2017-07-20T05:00:57.194Z,12164
2017-07-20T05:01:57.172Z,12460
2017-07-20T05:02:57.181Z,12688
2017-07-20T05:03:57.114Z,13016
2017-07-20T05:04:57.112Z,13408
2017-07-20T05:05:57.143Z,13924
2017-07-20T05:06:57.144Z,14596
2017-07-20T05:07:57.115Z,15292
2017-07-20T05:08:57.079Z,15916
2017-07-20T05:09:57.140Z,16448
2017-07-20T05:10:57.157Z,17084
2017-07-20T05:11:57.192Z,17600
2017-07-20T05:12:57.123Z,18120
2017-07-20T05:13:57.125Z,18468
2017-07-20T05:14:57.154Z,18676
2017-07-20T05:15:57.193Z,18624
2017-07-20T05:16:57.145Z,18256
2017-07-20T05:17:57.142Z,18000
2017-07-20T05:18:57.223Z,18068
2017-07-20T05:19:57.177Z,18424
2017-07-20T05:20:57.207Z,18940
2017-07-20T05:21:57.223Z,19492
2017-07-20T05:22:57.164Z,20052
2017-07-20T05:23:57.136Z,20800
2017-07-20T05:24:57.175Z,21248
2017-07-20T05:25:57.173Z,21696
2017-07-20T05:26:57.163Z,22016
2017-07-20T05:27:57.163Z,22208
2017-07-20T05:28:57.142Z,22304
2017-07-20T05:29:57.213Z,22400
2017-07-20T05:30:57.208Z,22624
2017-07-20T05:31:57.143Z,22912
2017-07-20T05:32:57.213Z,23264
2017-07-20T05:33:57.196Z,23584
2017-07-20T05:34:57.141Z,23936
2017-07-20T05:35:57.139Z,23840
2017-07-20T05:36:57.210Z,23488
2017-07-20T05:37:57.137Z,22720
2017-07-20T05:38:57.143Z,21984
2017-07-20T05:39:57.200Z,20512
2017-07-20T05:40:57.150Z,18808
2017-07-20T05:41:57.145Z,17300
2017-07-20T05:42:57.213Z,15804
2017-07-20T05:43:57.213Z,14456
2017-07-20T05:44:57.221Z,13048
2017-07-20T05:45:57.226Z,12000
2017-07-20T05:46:57.182Z,11000
2017-07-20T05:47:57.244Z,10268
2017-07-20T05:48:57.152Z,9728
2017-07-20T05:49:57.219Z,9332
2017-07-20T05:50:57.219Z,8980
2017-07-20T05:51:57.155Z,8824
2017-07-20T05:52:57.203Z,8828
2017-07-20T05:53:57.241Z,8956
2017-07-20T05:54:57.185Z,8992
2017-07-20T05:55:57.174Z,9152
2017-07-20T05:56:57.151Z,9436
2017-07-20T05:57:57.176Z,9724
2017-07-20T05:58:57.229Z,9988
2017-07-20T05:59:57.161Z,10112
2017-07-20T06:00:57.183Z,10272
2017-07-20T06:01:57.152Z,10424
2017-07-20T06:02:57.192Z,10724
2017-07-20T06:03:57.220Z,11000
2017-07-20T06:04:57.181Z,11296
2017-07-20T06:05:57.197Z,11608
2017-07-20T06:06:57.221Z,12020
2017-07-20T06:07:57.267Z,12252
2017-07-20T06:08:57.160Z,12132
2017-07-20T06:09:57.197Z,11852
2017-07-20T06:10:57.191Z,11616
2017-07-20T06:11:57.195Z,11452
2017-07-20T06:12:57.232Z,11348
2017-07-20T06:13:57.255Z,11308
2017-07-20T06:14:57.256Z,11228
2017-07-20T06:15:57.165Z,11228
2017-07-20T06:16:57.234Z,11236
2017-07-20T06:17:57.198Z,11144
2017-07-20T06:18:57.167Z,11120
2017-07-20T06:19:57.198Z,10968
2017-07-20T06:20:57.201Z,10864
2017-07-20T06:21:57.240Z,10764
2017-07-20T06:22:57.226Z,10648
2017-07-20T06:23:57.237Z,10620
2017-07-20T06:24:57.206Z,10608
2017-07-20T06:25:57.227Z,10380
2017-07-20T06:26:57.188Z,9908
2017-07-20T06:27:57.171Z,9200
2017-07-20T06:28:57.206Z,9968
2017-07-20T06:29:57.177Z,10504
2017-07-20T06:30:57.205Z,10556
2017-07-20T06:31:57.242Z,10616
2017-07-20T06:32:57.219Z,10940
2017-07-20T06:33:57.211Z,11728
2017-07-20T06:34:57.248Z,12456
2017-07-20T06:35:57.268Z,12684
2017-07-20T06:36:57.210Z,12424
2017-07-20T06:37:57.214Z,11852
2017-07-20T06:38:57.177Z,11356
2017-07-20T06:39:57.185Z,10908
2017-07-20T06:40:57.184Z,10528
2017-07-20T06:41:57.242Z,10136
2017-07-20T06:42:57.202Z,9768
2017-07-20T06:43:57.214Z,9464
2017-07-20T06:44:57.189Z,8916
2017-07-20T06:45:57.207Z,8356
2017-07-20T06:46:57.211Z,7788
2017-07-20T06:47:57.273Z,7272
2017-07-20T06:48:57.219Z,6960
2017-07-20T06:49:57.270Z,6760
2017-07-20T06:50:57.243Z,6640
2017-07-20T06:51:57.192Z,6632
2017-07-20T06:52:57.242Z,6896
2017-07-20T06:53:57.214Z,7280
2017-07-20T06:54:57.245Z,7868
2017-07-20T06:55:57.188Z,8604
2017-07-20T06:56:57.188Z,9268
2017-07-20T06:57:57.216Z,9764
2017-07-20T06:58:57.283Z,10368
2017-07-20T06:59:57.194Z,11520
2017-07-20T07:00:57.251Z,12804
2017-07-20T07:01:57.264Z,14184
2017-07-20T07:02:57.195Z,15548
2017-07-20T07:03:57.265Z,16924
2017-07-20T07:04:57.200Z,18236
2017-07-20T07:05:57.227Z,19764
2017-07-20T07:06:57.216Z,21312
2017-07-20T07:07:57.200Z,21600
2017-07-20T07:08:57.196Z,21344
2017-07-20T07:09:57.199Z,21120
2017-07-20T07:10:57.222Z,21312
2017-07-20T07:11:57.298Z,21504
2017-07-20T07:12:57.232Z,20704
2017-07-20T07:13:57.269Z,19572
2017-07-20T07:14:57.204Z,20212
2017-07-20T07:15:57.238Z,19984
2017-07-20T07:16:57.225Z,20960
2017-07-20T07:17:57.220Z,22688
2017-07-20T07:18:57.258Z,24032
2017-07-20T07:19:57.257Z,27200
2017-07-20T07:20:57.259Z,31456
2017-07-20T07:21:57.281Z,34944
2017-07-20T07:22:57.194Z,36032
2017-07-20T07:23:57.197Z,36160
2017-07-20T07:24:57.193Z,35616
2017-07-20T07:25:57.228Z,35296
2017-07-20T07:26:57.225Z,35488
2017-07-20T07:27:57.264Z,35392
2017-07-20T07:28:57.274Z,35328
2017-07-20T07:29:57.205Z,34976
2017-07-20T07:30:57.235Z,34336
2017-07-20T07:31:57.270Z,34048
2017-07-20T07:32:57.234Z,33696
2017-07-20T07:33:57.233Z,33504
2017-07-20T07:34:57.277Z,33824
2017-07-20T07:35:57.205Z,34400
2017-07-20T07:36:57.187Z,35200
2017-07-20T07:37:57.241Z,35360
2017-07-20T07:38:57.263Z,35520
2017-07-20T07:39:57.272Z,35104
2017-07-20T07:40:57.286Z,34560
2017-07-20T07:41:57.286Z,35296
2017-07-20T07:42:57.216Z,35648
2017-07-20T07:43:57.236Z,34944
2017-07-20T07:44:57.239Z,34176
2017-07-20T07:45:57.251Z,33824
2017-07-20T07:46:57.239Z,33952
2017-07-20T07:47:57.221Z,34176
2017-07-20T07:48:57.192Z,35232
2017-07-20T07:49:57.242Z,33248
2017-07-20T07:50:57.234Z,33536
2017-07-20T07:51:57.189Z,34688
2017-07-20T07:52:57.221Z,36000
2017-07-20T07:53:57.283Z,37088
2017-07-20T07:54:57.217Z,39008
2017-07-20T07:55:57.176Z,42144
2017-07-20T07:56:57.191Z,45888
2017-07-20T07:57:57.200Z,48000
2017-07-20T07:58:57.196Z,47008
2017-07-20T07:59:57.199Z,44704
2017-07-20T08:00:57.317Z,40896
2017-07-20T08:01:57.224Z,36608
2017-07-20T08:02:57.259Z,30560
2017-07-20T08:03:57.369Z,25664
2017-07-20T08:04:57.204Z,21728
2017-07-20T08:05:57.248Z,18852
2017-07-20T08:06:57.215Z,16980
2017-07-20T08:07:57.242Z,15640
2017-07-20T08:08:57.294Z,15080
2017-07-20T08:09:57.291Z,14772
2017-07-20T08:10:57.264Z,14864
2017-07-20T08:11:57.233Z,15096
2017-07-20T08:12:57.290Z,15636
2017-07-20T08:13:57.268Z,18088
2017-07-20T08:14:57.308Z,18804
2017-07-20T08:15:57.297Z,18076
2017-07-20T08:16:57.321Z,18056
2017-07-20T08:17:57.234Z,17680
2017-07-20T08:18:57.291Z,16100
2017-07-20T08:19:57.228Z,14548
2017-07-20T08:20:57.258Z,14336
2017-07-20T08:21:57.228Z,13536
2017-07-20T08:22:57.260Z,14576
2017-07-20T08:23:57.259Z,16840
2017-07-20T08:24:57.297Z,17552
2017-07-20T08:25:57.265Z,17840
2017-07-20T08:26:57.232Z,17916
2017-07-20T08:27:57.260Z,17748
2017-07-20T08:28:57.271Z,17960
2017-07-20T08:29:57.336Z,18336
2017-07-20T08:30:57.279Z,18568
2017-07-20T08:31:57.331Z,18212
2017-07-20T08:32:57.274Z,17176
2017-07-20T08:33:57.249Z,16044
2017-07-20T08:34:57.271Z,14928
2017-07-20T08:35:57.308Z,13340
2017-07-20T08:36:57.281Z,12260
2017-07-20T08:37:57.309Z,12012
2017-07-20T08:38:57.261Z,12524
2017-07-20T08:39:57.268Z,13048
2017-07-20T08:40:57.273Z,13660
2017-07-20T08:41:57.255Z,14324
2017-07-20T08:42:57.220Z,14572
2017-07-20T08:43:57.278Z,14732
2017-07-20T08:44:57.273Z,14932
2017-07-20T08:45:57.312Z,15064
2017-07-20T08:46:57.218Z,14920
2017-07-20T08:47:57.228Z,15172
2017-07-20T08:48:57.304Z,16316
2017-07-20T08:49:57.272Z,18172
2017-07-20T08:50:57.276Z,20568
2017-07-20T08:51:57.278Z,23488
2017-07-20T08:52:57.294Z,25952
2017-07-20T08:53:57.274Z,27584
2017-07-20T08:54:57.274Z,28064
2017-07-20T08:55:57.312Z,28352
2017-07-20T08:56:57.276Z,28768
2017-07-20T08:57:57.307Z,29536
2017-07-20T08:58:57.274Z,30592
2017-07-20T08:59:57.271Z,31616
2017-07-20T09:00:57.310Z,31712
2017-07-20T09:01:57.237Z,30752
2017-07-20T09:02:57.278Z,28768
2017-07-20T09:03:57.241Z,26592
2017-07-20T09:04:57.208Z,24256
2017-07-20T09:05:57.226Z,21888
2017-07-20T09:06:57.276Z,18972
2017-07-20T09:07:57.201Z,16496
2017-07-20T09:08:57.258Z,14740
2017-07-20T09:09:57.302Z,13644
2017-07-20T09:10:57.354Z,13292
2017-07-20T09:11:57.339Z,13080
2017-07-20T09:12:57.330Z,12832
2017-07-20T09:13:57.355Z,12512
2017-07-20T09:14:57.356Z,12340
2017-07-20T09:15:57.268Z,11936
2017-07-20T09:16:57.334Z,12752
2017-07-20T09:17:57.308Z,12876
2017-07-20T09:18:57.307Z,13348
2017-07-20T09:19:57.264Z,14748
2017-07-20T09:20:57.291Z,18296
2017-07-20T09:21:57.332Z,19788
2017-07-20T09:22:57.266Z,21728
2017-07-20T09:23:57.258Z,22560
2017-07-20T09:24:57.331Z,23584
2017-07-20T09:25:57.330Z,24384
2017-07-20T09:26:57.265Z,26848
2017-07-20T09:27:57.295Z,29376
2017-07-20T09:28:57.297Z,30624
2017-07-20T09:29:57.242Z,32416
2017-07-20T09:30:57.276Z,31872
2017-07-20T09:31:57.277Z,30944
2017-07-20T09:32:57.275Z,30592
2017-07-20T09:33:57.295Z,30240
2017-07-20T09:34:57.287Z,29856
2017-07-20T09:35:57.299Z,29248
2017-07-20T09:36:57.304Z,28800
2017-07-20T09:37:57.296Z,28640
2017-07-20T09:38:57.316Z,28544
2017-07-20T09:39:57.347Z,28416
2017-07-20T09:40:57.280Z,28192
2017-07-20T09:41:57.335Z,27872
2017-07-20T09:42:57.379Z,27264
2017-07-20T09:43:57.322Z,26624
2017-07-20T09:44:57.380Z,25664
2017-07-20T09:45:57.316Z,24480
2017-07-20T09:46:57.326Z,23648
2017-07-20T09:47:57.324Z,23200
2017-07-20T09:48:57.357Z,23104
2017-07-20T09:49:57.309Z,23264
2017-07-20T09:50:57.310Z,23744
2017-07-20T09:51:57.308Z,24608
2017-07-20T09:52:57.320Z,25952
2017-07-20T09:53:57.278Z,27392
2017-07-20T09:54:57.351Z,28704
2017-07-20T09:55:57.314Z,29408
2017-07-20T09:56:57.398Z,29536
2017-07-20T09:57:57.286Z,29376
2017-07-20T09:58:57.280Z,29088
2017-07-20T09:59:57.355Z,29056
2017-07-20T10:00:57.329Z,29408
2017-07-20T10:01:57.302Z,29952
2017-07-20T10:02:57.371Z,30624
2017-07-20T10:03:57.384Z,31456
2017-07-20T10:04:57.351Z,32096
2017-07-20T10:05:57.331Z,33216
2017-07-20T10:06:57.353Z,34432
2017-07-20T10:07:57.361Z,35136
2017-07-20T10:08:57.363Z,35456
2017-07-20T10:09:57.308Z,35744
2017-07-20T10:10:57.260Z,36000
2017-07-20T10:11:57.233Z,36512
2017-07-20T10:12:57.297Z,36992
2017-07-20T10:13:57.295Z,37760
2017-07-20T10:14:57.301Z,38752
2017-07-20T10:15:57.294Z,40256
2017-07-20T10:16:57.264Z,41984
2017-07-20T10:17:57.298Z,43808
2017-07-20T10:18:57.317Z,45088
2017-07-20T10:19:57.412Z,45792
2017-07-20T10:20:57.301Z,45824
2017-07-20T10:21:57.253Z,45664
2017-07-20T10:22:57.301Z,45184
2017-07-20T10:23:57.304Z,44992
2017-07-20T10:24:57.331Z,44352
2017-07-20T10:25:57.311Z,43168
2017-07-20T10:26:57.367Z,42048
2017-07-20T10:27:57.312Z,41696
2017-07-20T10:28:57.306Z,42240
2017-07-20T10:29:57.339Z,43424
2017-07-20T10:30:57.404Z,44544
2017-07-20T10:31:57.342Z,45120
2017-07-20T10:32:57.334Z,46528
2017-07-20T10:33:57.334Z,49248
2017-07-20T10:34:57.344Z,50240
2017-07-20T10:35:57.352Z,46720
2017-07-20T10:36:57.377Z,41824
2017-07-20T10:37:57.318Z,38432
2017-07-20T10:38:57.386Z,35776
2017-07-20T10:39:57.320Z,33984
2017-07-20T10:40:57.335Z,32160
2017-07-20T10:41:57.321Z,31232
2017-07-20T10:42:57.337Z,31776
2017-07-20T10:43:57.319Z,35136
2017-07-20T10:44:57.337Z,42112
2017-07-20T10:45:57.313Z,48544
2017-07-20T10:46:57.319Z,51776
2017-07-20T10:47:57.341Z,52928
2017-07-20T10:48:57.271Z,54912
2017-07-20T10:49:57.340Z,57664
2017-07-20T10:50:57.320Z,58496
2017-07-20T10:51:57.356Z,57184
2017-07-20T10:52:57.412Z,55872
2017-07-20T10:53:57.353Z,55296
2017-07-20T10:54:57.352Z,56352
2017-07-20T10:55:57.360Z,59200
2017-07-20T10:56:57.408Z,62944
2017-07-20T10:57:57.419Z,66720
2017-07-20T10:58:57.388Z,68096
2017-07-20T10:59:57.262Z,70496
2017-07-20T11:00:57.342Z,73888
2017-07-20T11:01:57.345Z,80512
2017-07-20T11:02:57.324Z,77280
2017-07-20T11:03:57.263Z,75744
2017-07-20T11:04:57.349Z,74176
2017-07-20T11:05:57.378Z,75744
2017-07-20T11:06:57.343Z,77280
2017-07-20T11:07:57.268Z,74688
2017-07-20T11:08:57.322Z,73408
2017-07-20T11:09:57.475Z,81408
2017-07-20T11:10:57.401Z,94752
2017-07-20T11:11:57.367Z,92000
2017-07-20T11:12:57.338Z,89728
2017-07-20T11:13:57.337Z,94848
2017-07-20T11:14:57.421Z,101536
2017-07-20T11:15:57.408Z,105152
2017-07-20T11:16:57.438Z,109152
2017-07-20T11:17:57.399Z,105632
2017-07-20T11:18:57.365Z,94688
2017-07-20T11:19:57.358Z,76768
2017-07-20T11:20:57.402Z,72160
2017-07-20T11:21:57.336Z,68160
2017-07-20T11:22:57.290Z,68864
2017-07-20T11:23:57.363Z,70880
2017-07-20T11:24:57.361Z,75392
2017-07-20T11:25:57.336Z,84480
2017-07-20T11:26:57.340Z,81792
2017-07-20T11:27:57.355Z,89600
2017-07-20T11:28:57.348Z,94496
2017-07-20T11:29:57.361Z,86848
2017-07-20T11:30:57.363Z,98400
2017-07-20T11:31:57.333Z,85408
2017-07-20T11:32:57.401Z,73248
2017-07-20T11:33:57.408Z,68224
2017-07-20T11:34:57.403Z,69600
2017-07-20T11:35:57.369Z,72448
2017-07-20T11:36:57.372Z,81312
2017-07-20T11:37:57.408Z,102336
2017-07-20T11:38:57.403Z,106560
2017-07-20T11:39:57.379Z,103488
2017-07-20T11:40:57.384Z,87136
2017-07-20T11:41:57.385Z,92928
2017-07-20T11:42:57.352Z,91552
2017-07-20T11:43:57.392Z,110176
2017-07-20T11:44:57.373Z,86208
2017-07-20T11:45:57.422Z,71936
2017-07-20T11:46:57.358Z,69472
2017-07-20T11:47:57.445Z,76096
2017-07-20T11:48:57.354Z,92736
2017-07-20T11:49:57.353Z,83776
2017-07-20T11:50:57.452Z,81376
2017-07-20T11:51:57.430Z,94368
2017-07-20T11:52:57.421Z,134752
2017-07-20T11:53:57.355Z,123104
2017-07-20T11:55:57.360Z,116320
2017-07-20T11:56:57.392Z,124512
2017-07-20T11:58:57.420Z,134848
2017-07-20T11:59:57.398Z,143904
2017-07-20T12:00:57.381Z,141952
2017-07-20T12:01:57.386Z,120032
2017-07-20T12:02:57.398Z,133856
2017-07-20T12:03:57.440Z,131936
2017-07-20T12:04:57.398Z,134880
2017-07-20T12:05:57.405Z,123552
2017-07-20T12:06:57.372Z,102880
2017-07-20T12:07:57.440Z,127040
2017-07-20T12:08:57.375Z,107872
2017-07-20T12:09:57.415Z,105760
2017-07-20T12:10:57.358Z,145152
2017-07-20T12:11:57.387Z,94944
2017-07-20T12:12:57.368Z,90720
2017-07-20T12:13:57.349Z,137376
2017-07-20T12:14:57.386Z,136352
2017-07-20T12:15:57.385Z,129664
2017-07-20T12:16:57.415Z,85472
2017-07-20T12:17:57.422Z,97024
2017-07-20T12:18:57.381Z,89376
2017-07-20T12:19:57.355Z,84576
2017-07-20T12:20:57.437Z,101888
2017-07-20T12:21:57.394Z,120672
2017-07-20T12:23:57.392Z,119904
2017-07-20T12:24:57.388Z,81568
2017-07-20T12:25:57.389Z,73952
2017-07-20T12:26:57.361Z,67360
2017-07-20T12:27:57.394Z,64096
2017-07-20T12:28:57.434Z,58400
2017-07-20T12:29:57.372Z,57792
2017-07-20T12:30:57.367Z,58240
2017-07-20T12:31:57.439Z,63904
2017-07-20T12:32:57.400Z,105536
2017-07-20T12:33:57.370Z,90880
2017-07-20T12:34:57.402Z,106848
2017-07-20T12:35:57.405Z,77728
2017-07-20T12:36:57.384Z,98592
2017-07-20T12:37:57.438Z,98080
2017-07-20T12:38:57.440Z,95840
2017-07-20T12:39:57.441Z,102944
2017-07-20T12:40:57.418Z,93696
2017-07-20T12:41:57.445Z,128448
2017-07-20T12:42:57.420Z,75680
2017-07-20T12:43:57.413Z,71008
2017-07-20T12:44:57.476Z,76064
2017-07-20T12:45:57.400Z,127040
2017-07-20T12:46:57.454Z,77216
2017-07-20T12:47:57.422Z,96352
2017-07-20T12:48:57.392Z,55584
2017-07-20T12:49:57.395Z,46848
2017-07-20T12:50:57.404Z,43328
2017-07-20T12:51:57.372Z,43136
2017-07-20T12:52:57.409Z,48928
2017-07-20T12:53:57.387Z,41280
2017-07-20T12:54:57.480Z,37536
2017-07-20T12:55:57.408Z,32128
2017-07-20T12:56:57.440Z,29920
2017-07-20T12:57:57.372Z,32352
2017-07-20T12:58:57.445Z,40192
2017-07-20T12:59:57.414Z,50112
2017-07-20T13:01:57.418Z,60928
2017-07-20T13:02:57.451Z,56416
2017-07-20T13:03:57.421Z,53888
2017-07-20T13:04:57.460Z,54080
2017-07-20T13:05:57.422Z,137408
2017-07-20T13:06:57.448Z,67296
2017-07-20T13:07:57.389Z,66816
2017-07-20T13:08:57.416Z,77408
2017-07-20T13:09:57.421Z,84608
2017-07-20T13:10:57.372Z,76672
2017-07-20T13:11:57.423Z,74368
2017-07-20T13:12:57.402Z,79936
2017-07-20T13:13:57.377Z,73952
2017-07-20T13:14:57.381Z,56480
2017-07-20T13:15:57.440Z,49728
2017-07-20T13:16:57.403Z,44960
2017-07-20T13:17:57.409Z,40800
2017-07-20T13:18:57.415Z,37664
2017-07-20T13:19:57.473Z,36288
2017-07-20T13:20:57.409Z,35520
2017-07-20T13:21:57.408Z,34720
2017-07-20T13:22:57.500Z,32224
2017-07-20T13:23:57.464Z,29888
2017-07-20T13:24:57.505Z,28832